createdAt,value
2019-02-20T00:00:02.166Z,9.90
2019-02-20T00:02:38.385Z,13.83
2019-02-20T00:05:07.586Z,5.77
2019-02-20T00:07:36.723Z,7.93
2019-02-20T00:10:05.879Z,6.30
2019-02-20T00:12:35.002Z,7.57
2019-02-20T00:15:04.654Z,7.83
2019-02-20T00:17:33.866Z,9.60
2019-02-20T00:20:03.980Z,6.63
2019-02-20T00:22:40.067Z,6.97
2019-02-20T00:25:04.280Z,8.33
2019-02-20T00:27:35.084Z,8.07
2019-02-20T00:30:06.585Z,7.90
2019-02-20T00:32:35.734Z,6.10
2019-02-20T00:35:07.072Z,9.90
2019-02-20T00:37:36.312Z,6.23
2019-02-20T00:40:08.161Z,6.73
2019-02-20T00:42:37.445Z,8.37
2019-02-20T00:45:13.537Z,8.93
2019-02-20T00:47:44.322Z,7.77
2019-02-20T00:50:14.591Z,6.57
2019-02-20T00:52:50.156Z,8.53
2019-02-20T00:55:18.583Z,10.90
2019-02-20T00:57:47.850Z,6.63
2019-02-20T01:00:17.312Z,7.77
2019-02-20T01:02:46.500Z,11.30
2019-02-20T01:05:15.962Z,7.37
2019-02-20T01:07:45.179Z,7.53
2019-02-20T01:10:14.302Z,7.60
2019-02-20T01:12:45.760Z,9.57
2019-02-20T01:15:14.817Z,9.20
2019-02-20T01:17:49.386Z,7.30
2019-02-20T01:20:18.455Z,8.57
2019-02-20T01:22:47.606Z,8.47
2019-02-20T01:25:16.685Z,8.80
2019-02-20T01:27:46.834Z,6.57
2019-02-20T01:30:15.903Z,7.27
2019-02-20T01:32:45.107Z,6.27
2019-02-20T01:35:14.277Z,7.90
2019-02-20T01:37:43.627Z,6.50
2019-02-20T01:40:12.801Z,7.83
2019-02-20T01:42:41.879Z,5.53
2019-02-20T01:45:11.028Z,8.43
2019-02-20T01:47:40.116Z,9.47
2019-02-20T01:50:09.295Z,7.33
2019-02-20T01:52:38.329Z,7.77
2019-02-20T01:55:08.607Z,6.93
2019-02-20T01:57:38.815Z,8.67
2019-02-20T02:00:13.901Z,12.67
2019-02-20T02:02:43.905Z,8.87
2019-02-20T02:05:15.725Z,9.33
2019-02-20T02:07:43.842Z,8.40
2019-02-20T02:10:13.252Z,6.97
2019-02-20T02:12:47.688Z,9.23
2019-02-20T02:15:20.584Z,7.50
2019-02-20T02:17:48.750Z,9.93
2019-02-20T02:20:17.955Z,7.67
2019-02-20T02:22:47.016Z,8.57
2019-02-20T02:25:16.166Z,8.40
2019-02-20T02:27:50.110Z,6.73
2019-02-20T02:30:32.760Z,11.57
2019-02-20T02:33:01.841Z,8.77
2019-02-20T02:35:30.982Z,9.80
2019-02-20T02:38:00.148Z,7.83
2019-02-20T02:40:29.287Z,6.27
2019-02-20T02:42:58.632Z,5.83
2019-02-20T02:45:34.181Z,6.67
2019-02-20T02:48:03.407Z,10.37
2019-02-20T02:50:32.707Z,7.70
2019-02-20T02:53:01.822Z,8.77
2019-02-20T02:55:31.060Z,10.37
2019-02-20T02:58:01.945Z,7.83
2019-02-20T03:00:31.138Z,8.30
2019-02-20T03:03:00.210Z,8.70
2019-02-20T03:05:29.373Z,10.20
2019-02-20T03:07:58.505Z,8.87
2019-02-20T03:10:38.738Z,7.57
2019-02-20T03:13:07.874Z,8.40
2019-02-20T03:15:36.974Z,8.83
2019-02-20T03:18:06.126Z,6.63
2019-02-20T03:20:35.222Z,10.70
2019-02-20T03:23:04.367Z,9.37
2019-02-20T03:25:33.521Z,9.70
2019-02-20T03:28:08.153Z,9.00
2019-02-20T03:30:37.435Z,7.37
2019-02-20T03:33:06.603Z,7.60
2019-02-20T03:35:35.793Z,7.47
2019-02-20T03:38:04.951Z,6.70
2019-02-20T03:40:34.131Z,9.40
2019-02-20T03:43:03.211Z,8.93
2019-02-20T03:45:32.412Z,8.40
2019-02-20T03:48:01.739Z,6.23
2019-02-20T03:50:30.886Z,8.00
2019-02-20T03:53:01.012Z,7.20
2019-02-20T03:55:30.101Z,7.83
2019-02-20T03:57:59.235Z,7.23
2019-02-20T04:00:28.386Z,9.53
2019-02-20T04:02:57.559Z,6.50
2019-02-20T04:05:32.730Z,9.83
2019-02-20T04:08:02.029Z,8.27
2019-02-20T04:10:33.153Z,8.57
2019-02-20T04:13:06.721Z,6.97
2019-02-20T04:15:35.870Z,8.53
2019-02-20T04:18:05.293Z,7.40
2019-02-20T04:20:34.428Z,6.83
2019-02-20T04:23:03.655Z,7.77
2019-02-20T04:25:32.805Z,9.60
2019-02-20T04:28:01.938Z,10.83
2019-02-20T04:30:31.057Z,7.63
2019-02-20T04:33:00.561Z,7.63
2019-02-20T04:35:29.793Z,7.43
2019-02-20T04:38:00.849Z,6.87
2019-02-20T04:40:41.659Z,10.80
2019-02-20T04:43:10.868Z,10.20
2019-02-20T04:45:40.078Z,10.07
2019-02-20T04:48:09.174Z,9.17
2019-02-20T04:50:38.306Z,8.20
2019-02-20T04:53:07.782Z,7.40
2019-02-20T04:55:37.842Z,9.70
2019-02-20T04:58:17.744Z,6.97
2019-02-20T05:00:47.179Z,9.30
2019-02-20T05:03:16.295Z,12.03
2019-02-20T05:05:47.644Z,8.00
2019-02-20T05:08:18.024Z,7.87
2019-02-20T05:10:47.205Z,8.87
2019-02-20T05:13:16.581Z,7.57
2019-02-20T05:15:45.730Z,9.33
2019-02-20T05:18:14.893Z,9.87
2019-02-20T05:20:46.124Z,15.07
2019-02-20T05:23:15.232Z,12.90
2019-02-20T05:25:44.493Z,10.00
2019-02-20T05:28:13.635Z,8.67
2019-02-20T05:30:42.819Z,11.47
2019-02-20T05:33:13.078Z,8.57
2019-02-20T05:35:48.528Z,11.30
2019-02-20T05:38:18.837Z,7.80
2019-02-20T05:40:48.249Z,11.73
2019-02-20T05:43:17.492Z,7.27
2019-02-20T05:45:46.644Z,10.30
2019-02-20T05:48:15.821Z,9.47
2019-02-20T05:50:45.048Z,10.13
2019-02-20T05:53:14.129Z,10.13
2019-02-20T05:55:43.338Z,10.57
2019-02-20T05:58:14.820Z,8.57
2019-02-20T06:00:44.101Z,16.10
2019-02-20T06:03:21.436Z,9.67
2019-02-20T06:05:52.200Z,9.03
2019-02-20T06:08:21.517Z,12.17
2019-02-20T06:10:50.736Z,9.67
2019-02-20T06:13:19.852Z,8.40
2019-02-20T06:15:49.091Z,9.50
2019-02-20T06:18:18.166Z,12.57
2019-02-20T06:20:47.288Z,17.23
2019-02-20T06:23:16.642Z,12.30
2019-02-20T06:25:46.018Z,11.70
2019-02-20T06:28:15.279Z,7.97
2019-02-20T06:30:44.747Z,11.77
2019-02-20T06:33:14.148Z,10.73
2019-02-20T06:35:43.320Z,9.50
2019-02-20T06:38:12.482Z,12.00
2019-02-20T06:40:42.146Z,15.63
2019-02-20T06:43:11.322Z,15.50
2019-02-20T06:45:40.705Z,22.47
2019-02-20T06:48:12.727Z,11.00
2019-02-20T06:50:41.939Z,11.20
2019-02-20T06:53:19.911Z,10.40
2019-02-20T06:55:49.817Z,20.77
2019-02-20T06:58:20.176Z,13.40
2019-02-20T07:00:51.630Z,13.00
2019-02-20T07:03:20.841Z,12.47
2019-02-20T07:05:51.468Z,14.37
2019-02-20T07:08:43.803Z,13.10
2019-02-20T07:11:32.777Z,12.53
2019-02-20T07:14:34.037Z,11.67
2019-02-20T07:17:21.441Z,11.37
2019-02-20T07:20:08.448Z,11.53
2019-02-20T07:22:55.880Z,12.53
2019-02-20T07:25:36.520Z,12.70
2019-02-20T07:28:16.580Z,11.10
2019-02-20T07:30:45.814Z,10.67
2019-02-20T07:33:15.482Z,11.60
2019-02-20T07:35:44.754Z,10.33
2019-02-20T07:38:14.383Z,12.87
2019-02-20T07:40:43.999Z,13.33
2019-02-20T07:43:13.197Z,12.87
2019-02-20T07:45:42.435Z,14.93
2019-02-20T07:48:11.573Z,12.63
2019-02-20T07:50:40.808Z,11.77
2019-02-20T07:53:18.114Z,14.00
2019-02-20T07:55:46.470Z,14.00
2019-02-20T07:58:15.766Z,13.27
2019-02-20T08:00:45.025Z,15.03
2019-02-20T08:03:15.383Z,13.57
2019-02-20T08:05:44.691Z,12.37
2019-02-20T08:08:24.673Z,13.40
2019-02-20T08:10:53.901Z,12.93
2019-02-20T08:13:24.810Z,12.37
2019-02-20T08:15:54.565Z,9.73
2019-02-20T08:18:23.748Z,14.97
2019-02-20T08:20:53.261Z,14.47
2019-02-20T08:23:22.456Z,14.20
2019-02-20T08:25:55.862Z,14.83
2019-02-20T08:28:25.692Z,14.83
2019-02-20T08:30:57.301Z,15.00
2019-02-20T08:33:26.628Z,14.50
2019-02-20T08:35:56.812Z,13.13
2019-02-20T08:38:27.298Z,16.57
2019-02-20T08:40:56.753Z,14.73
2019-02-20T08:43:26.055Z,13.63
2019-02-20T08:45:56.819Z,10.20
2019-02-20T08:48:26.523Z,17.80
2019-02-20T08:50:57.139Z,13.93
2019-02-20T08:53:26.263Z,14.00
2019-02-20T08:55:55.426Z,11.17
2019-02-20T08:58:38.592Z,12.93
2019-02-20T09:01:07.815Z,10.60
2019-02-20T09:03:38.106Z,16.37
2019-02-20T09:06:07.312Z,12.30
2019-02-20T09:08:36.520Z,13.53
2019-02-20T09:11:14.748Z,9.87
2019-02-20T09:13:43.876Z,12.20
2019-02-20T09:16:13.032Z,14.30
2019-02-20T09:18:42.260Z,10.30
2019-02-20T09:21:11.573Z,9.97
2019-02-20T09:23:42.268Z,13.73
2019-02-20T09:26:12.875Z,13.33
2019-02-20T09:28:42.007Z,10.83
2019-02-20T09:31:13.648Z,10.47
2019-02-20T09:33:42.937Z,12.67
2019-02-20T09:36:12.311Z,11.27
2019-02-20T09:38:43.997Z,11.67
2019-02-20T09:41:13.347Z,10.73
2019-02-20T09:43:43.310Z,11.97
2019-02-20T09:46:12.896Z,11.33
2019-02-20T09:48:42.710Z,11.47
2019-02-20T09:51:12.027Z,13.53
2019-02-20T09:53:41.284Z,11.67
2019-02-20T09:56:10.463Z,11.30
2019-02-20T09:58:39.643Z,12.73
2019-02-20T10:01:08.870Z,13.73
2019-02-20T10:03:38.511Z,13.30
2019-02-20T10:06:12.913Z,14.20
2019-02-20T10:08:41.275Z,9.80
2019-02-20T10:11:22.613Z,12.03
2019-02-20T10:13:53.451Z,13.87
2019-02-20T10:16:22.558Z,13.43
2019-02-20T10:18:51.893Z,11.53
2019-02-20T10:21:22.202Z,9.80
2019-02-20T10:23:53.682Z,10.13
2019-02-20T10:26:25.973Z,10.07
2019-02-20T10:28:55.291Z,11.97
2019-02-20T10:31:24.597Z,9.67
2019-02-20T10:33:54.071Z,11.00
2019-02-20T10:36:23.757Z,9.10
2019-02-20T10:38:52.952Z,10.07
2019-02-20T10:41:22.097Z,9.47
2019-02-20T10:43:51.544Z,7.33
2019-02-20T10:46:20.856Z,10.07
2019-02-20T10:48:49.992Z,9.07
2019-02-20T10:51:19.259Z,11.80
2019-02-20T10:53:48.564Z,9.77
2019-02-20T10:56:17.682Z,12.23
2019-02-20T10:58:59.668Z,13.43
2019-02-20T11:01:29.221Z,10.37
2019-02-20T11:04:00.618Z,8.53
2019-02-20T11:06:29.785Z,8.90
2019-02-20T11:08:59.403Z,10.17
2019-02-20T11:11:30.403Z,9.53
2019-02-20T11:13:59.717Z,8.37
2019-02-20T11:16:28.866Z,11.93
2019-02-20T11:18:58.170Z,9.47
2019-02-20T11:21:29.700Z,8.27
2019-02-20T11:24:11.601Z,10.50
2019-02-20T11:26:52.215Z,8.43
2019-02-20T11:29:11.586Z,6.27
2019-02-20T11:31:41.020Z,8.30
2019-02-20T11:34:10.262Z,9.97
2019-02-20T11:36:42.741Z,8.27
2019-02-20T11:39:12.051Z,10.33
2019-02-20T11:41:41.290Z,9.40
2019-02-20T11:44:10.469Z,6.50
2019-02-20T11:46:39.804Z,13.47
2019-02-20T11:49:09.827Z,11.63
2019-02-20T11:51:39.188Z,8.50
2019-02-20T11:54:08.309Z,10.80
2019-02-20T11:56:38.120Z,11.67
2019-02-20T11:59:07.392Z,7.97
2019-02-20T12:01:36.696Z,6.07
2019-02-20T12:04:06.991Z,9.73
2019-02-20T12:06:36.170Z,6.83
2019-02-20T12:09:06.634Z,5.33
2019-02-20T12:11:36.778Z,5.10
2019-02-20T12:14:15.555Z,4.13
2019-02-20T12:16:44.850Z,6.47
2019-02-20T12:19:14.002Z,5.80
2019-02-20T12:21:43.233Z,5.33
2019-02-20T12:24:12.354Z,4.83
2019-02-20T12:26:48.646Z,4.17
2019-02-20T12:29:19.068Z,9.83
2019-02-20T12:31:52.542Z,3.17
2019-02-20T12:34:20.694Z,6.03
2019-02-20T12:36:53.047Z,7.43
2019-02-20T12:39:27.772Z,6.57
2019-02-20T12:41:57.667Z,8.17
2019-02-20T12:44:29.477Z,4.90
2019-02-20T12:46:59.905Z,7.10
2019-02-20T12:49:29.265Z,6.67
2019-02-20T12:52:02.617Z,2.87
2019-02-20T12:54:32.164Z,7.20
2019-02-20T12:57:01.440Z,8.70
2019-02-20T12:59:30.567Z,5.60
2019-02-20T13:02:00.762Z,5.87
2019-02-20T13:04:31.037Z,5.60
2019-02-20T13:07:00.288Z,4.73
2019-02-20T13:09:29.867Z,8.30
2019-02-20T13:11:59.133Z,6.70
2019-02-20T13:14:28.847Z,5.77
2019-02-20T13:17:06.745Z,8.50
2019-02-20T13:19:39.619Z,9.57
2019-02-20T13:22:08.809Z,5.70
2019-02-20T13:24:38.081Z,9.00
2019-02-20T13:27:10.055Z,4.30
2019-02-20T13:29:38.782Z,5.30
2019-02-20T13:32:09.301Z,6.30
2019-02-20T13:34:38.690Z,6.60
2019-02-20T13:37:07.878Z,6.77
2019-02-20T13:39:37.029Z,6.07
2019-02-20T13:42:19.910Z,5.23
2019-02-20T13:44:58.716Z,6.70
2019-02-20T13:47:29.733Z,5.73
2019-02-20T13:49:58.900Z,7.20
2019-02-20T13:52:28.094Z,6.67
2019-02-20T13:54:57.546Z,5.77
2019-02-20T13:57:33.568Z,8.00
2019-02-20T14:00:02.862Z,6.03
2019-02-20T14:02:32.041Z,9.90
2019-02-20T14:05:01.277Z,5.77
2019-02-20T14:07:33.750Z,5.43
2019-02-20T14:10:06.172Z,6.80
2019-02-20T14:12:37.190Z,5.73
2019-02-20T14:15:08.662Z,5.60
2019-02-20T14:17:40.942Z,6.87
2019-02-20T14:20:12.558Z,7.57
2019-02-20T14:22:42.506Z,7.23
2019-02-20T14:25:15.393Z,9.03
2019-02-20T14:27:44.680Z,10.53
2019-02-20T14:30:13.847Z,8.07
2019-02-20T14:32:43.207Z,12.40
2019-02-20T14:35:18.664Z,9.33
2019-02-20T14:37:47.912Z,6.70
2019-02-20T14:40:18.867Z,9.63
2019-02-20T14:42:48.036Z,7.50
2019-02-20T14:45:19.871Z,6.83
2019-02-20T14:47:49.642Z,6.40
2019-02-20T14:50:19.421Z,8.23
2019-02-20T14:52:48.641Z,6.30
2019-02-20T14:55:18.990Z,8.13
2019-02-20T14:57:48.553Z,6.83
2019-02-20T15:00:19.120Z,12.60
2019-02-20T15:02:48.265Z,6.93
2019-02-20T15:05:19.251Z,9.40
2019-02-20T15:07:48.476Z,8.60
2019-02-20T15:10:25.275Z,7.50
2019-02-20T15:12:56.916Z,7.97
2019-02-20T15:15:26.128Z,6.13
2019-02-20T15:17:55.332Z,7.90
2019-02-20T15:20:26.437Z,8.60
2019-02-20T15:22:56.241Z,5.90
2019-02-20T15:25:26.097Z,6.50
2019-02-20T15:28:02.551Z,7.60
2019-02-20T15:30:32.253Z,6.73
2019-02-20T15:33:01.666Z,7.30
2019-02-20T15:35:30.936Z,7.27
2019-02-20T15:38:00.590Z,9.00
2019-02-20T15:40:31.165Z,7.93
2019-02-20T15:43:02.782Z,10.13
2019-02-20T15:45:32.234Z,8.57
2019-02-20T15:48:01.376Z,7.07
2019-02-20T15:50:30.715Z,7.67
2019-02-20T15:53:02.484Z,10.67
2019-02-20T15:55:31.727Z,8.27
2019-02-20T15:58:02.057Z,7.77
2019-02-20T16:00:31.403Z,12.67
2019-02-20T16:03:08.184Z,8.43
2019-02-20T16:05:39.043Z,9.97
2019-02-20T16:08:08.264Z,11.80
2019-02-20T16:10:37.470Z,12.40
2019-02-20T16:13:06.587Z,9.77
2019-02-20T16:15:36.266Z,9.20
2019-02-20T16:18:05.505Z,10.23
2019-02-20T16:20:34.746Z,7.33
2019-02-20T16:23:03.868Z,10.17
2019-02-20T16:25:34.205Z,10.43
2019-02-20T16:28:03.724Z,8.90
2019-02-20T16:30:33.263Z,12.37
2019-02-20T16:33:04.445Z,10.47
2019-02-20T16:35:36.076Z,9.57
2019-02-20T16:38:05.460Z,10.90
2019-02-20T16:40:45.380Z,13.47
2019-02-20T16:43:15.036Z,10.23
2019-02-20T16:45:46.845Z,14.00
2019-02-20T16:48:16.077Z,12.00
2019-02-20T16:50:45.446Z,14.77
2019-02-20T16:53:14.714Z,13.10
2019-02-20T16:55:45.080Z,14.33
2019-02-20T16:58:14.909Z,10.57
2019-02-20T17:00:44.182Z,12.20
2019-02-20T17:03:13.590Z,15.77
2019-02-20T17:05:51.014Z,10.37
2019-02-20T17:08:20.349Z,9.40
2019-02-20T17:10:49.474Z,7.67
2019-02-20T17:13:19.070Z,10.83
2019-02-20T17:15:48.840Z,12.70
2019-02-20T17:18:18.080Z,11.73
2019-02-20T17:20:47.263Z,19.00
2019-02-20T17:23:16.866Z,9.80
2019-02-20T17:25:49.086Z,8.77
2019-02-20T17:28:18.369Z,10.97
2019-02-20T17:31:02.204Z,8.57
2019-02-20T17:33:34.115Z,9.00
2019-02-20T17:36:05.032Z,9.53
2019-02-20T17:38:35.097Z,7.57
2019-02-20T17:41:05.475Z,11.33
2019-02-20T17:43:48.528Z,12.60
2019-02-20T17:46:18.742Z,8.50
2019-02-20T17:48:48.175Z,14.47
2019-02-20T17:51:17.327Z,8.53
2019-02-20T17:53:46.713Z,7.80
2019-02-20T17:56:15.926Z,6.53
2019-02-20T17:58:45.215Z,7.87
2019-02-20T18:01:16.353Z,8.67
2019-02-20T18:03:45.521Z,11.20
2019-02-20T18:06:15.819Z,10.47
2019-02-20T18:08:46.054Z,8.30
2019-02-20T18:11:15.256Z,8.40
2019-02-20T18:13:44.528Z,12.30
2019-02-20T18:16:15.853Z,8.03
2019-02-20T18:18:45.414Z,6.77
2019-02-20T18:21:15.208Z,11.03
2019-02-20T18:23:44.584Z,9.63
2019-02-20T18:26:33.304Z,10.40
2019-02-20T18:29:09.747Z,7.93
2019-02-20T18:31:39.237Z,11.20
2019-02-20T18:34:08.427Z,14.27
2019-02-20T18:36:37.703Z,9.60
2019-02-20T18:39:07.771Z,12.00
2019-02-20T18:41:36.956Z,9.10
2019-02-20T18:44:13.917Z,11.80
2019-02-20T18:46:43.835Z,8.93
2019-02-20T18:49:12.971Z,11.00
2019-02-20T18:51:42.230Z,8.73
2019-02-20T18:54:21.727Z,8.37
2019-02-20T18:56:50.919Z,10.80
2019-02-20T18:59:30.667Z,7.83
2019-02-20T19:01:59.822Z,8.37
2019-02-20T19:04:29.009Z,10.00
2019-02-20T19:06:58.216Z,13.40
2019-02-20T19:09:27.393Z,7.13
2019-02-20T19:12:21.212Z,7.63
2019-02-20T19:15:13.634Z,8.00
2019-02-20T19:17:56.746Z,11.70
2019-02-20T19:20:31.824Z,12.80
2019-02-20T19:23:19.417Z,9.33
2019-02-20T19:26:12.403Z,12.07
2019-02-20T19:28:56.951Z,11.00
2019-02-20T19:31:39.467Z,9.73
2019-02-20T19:34:40.289Z,13.00
2019-02-20T19:37:12.798Z,9.23
2019-02-20T19:40:00.367Z,9.37
2019-02-20T19:42:47.848Z,10.43
2019-02-20T19:45:20.917Z,9.20
2019-02-20T19:48:21.489Z,24.73
2019-02-20T19:51:01.694Z,10.93
2019-02-20T19:53:52.037Z,8.37
2019-02-20T19:56:33.301Z,193.03
2019-02-20T19:59:34.925Z,111.93
2019-02-20T20:02:28.155Z,11.23
2019-02-20T20:05:32.953Z,12.57
2019-02-20T20:08:13.314Z,17.20
2019-02-20T20:10:51.501Z,10.00
2019-02-20T20:13:32.555Z,250.60
2019-02-20T20:16:21.107Z,233.55
2019-02-20T20:19:13.610Z,236.30
2019-02-20T20:21:51.123Z,228.47
2019-02-20T20:24:32.629Z,202.47
2019-02-20T20:27:29.836Z,228.12
2019-02-20T20:30:11.032Z,231.70
2019-02-20T20:33:10.323Z,171.70
2019-02-20T20:35:54.841Z,141.18
2019-02-20T20:38:28.945Z,71.35
2019-02-20T20:41:11.175Z,134.47
2019-02-20T20:43:48.883Z,224.37
2019-02-20T20:46:25.319Z,254.45
2019-02-20T20:49:06.336Z,122.40
2019-02-20T20:51:41.176Z,41.53
2019-02-20T20:54:22.205Z,6.87
2019-02-20T20:57:00.418Z,5.00
2019-02-20T20:59:38.354Z,1.47
2019-02-20T21:02:17.740Z,6.42
2019-02-20T21:04:59.706Z,253.75
2019-02-20T21:07:37.986Z,254.97
2019-02-20T21:10:16.250Z,105.12
2019-02-20T21:13:14.292Z,271.82
2019-02-20T21:16:10.513Z,243.40
2019-02-20T21:19:00.539Z,240.15
2019-02-20T21:22:03.033Z,240.62
2019-02-20T21:24:50.040Z,159.63
2019-02-20T21:27:31.256Z,84.90
2019-02-20T21:30:15.329Z,8.00
2019-02-20T21:33:05.085Z,214.42
2019-02-20T21:35:38.121Z,188.22
2019-02-20T21:38:32.597Z,261.75
2019-02-20T21:41:10.944Z,260.08
2019-02-20T21:43:50.867Z,293.20
2019-02-20T21:46:41.825Z,265.07
2019-02-20T21:49:14.047Z,233.53
2019-02-20T21:51:50.485Z,242.60
2019-02-20T21:54:39.288Z,271.65
2019-02-20T21:57:14.144Z,209.92
2019-02-20T21:59:56.225Z,175.12
2019-02-20T22:02:37.571Z,15.08
2019-02-20T22:05:12.567Z,15.70
2019-02-20T22:07:59.819Z,5.30
2019-02-20T22:10:34.695Z,330.92
2019-02-20T22:13:12.559Z,269.00
2019-02-20T22:16:10.331Z,38.78
2019-02-20T22:19:11.252Z,44.65
2019-02-20T22:21:46.197Z,12.53
2019-02-20T22:24:23.833Z,5.90
2019-02-20T22:32:27.244Z,0.00
